| time (UTC) | temp C | wind direction | speed KPH | gust KPH | rain 1hr cm | rain 24hr cm | rain mn cm | humidity % | barometer mb |
| 20260508132904 | 22 | 224 | 4.8 | 12.9 | 0.00 | 0.00 | 0.00 | 45 | 1009.1 |
| 20260508132404 | 22 | 229 | 4.8 | 16.1 | 0.00 | 0.00 | 0.00 | 45 | 1009.0 |
| 20260508131404 | 22 | 221 | 6.4 | 16.1 | 0.00 | 0.00 | 0.00 | 46 | 1009.3 |
| 20260508130905 | 22 | 204 | 4.8 | 12.9 | 0.00 | 0.00 | 0.00 | 46 | 1009.2 |
| 20260508130404 | 22 | 185 | 6.4 | 19.3 | 0.00 | 0.00 | 0.00 | 46 | 1009.3 |
| 20260508125904 | 22 | 160 | 6.4 | 19.3 | 0.00 | 0.00 | 0.00 | 47 | 1009.5 |
| 20260508124904 | 22 | 182 | 4.8 | 17.7 | 0.00 | 0.00 | 0.00 | 47 | 1009.5 |
| 20260508124405 | 22 | 211 | 6.4 | 17.7 | 0.00 | 0.00 | 0.00 | 47 | 1009.7 |
| 20260508123905 | 22 | 234 | 4.8 | 12.9 | 0.00 | 0.00 | 0.00 | 47 | 1009.6 |
| 20260508123405 | 22 | 229 | 4.8 | 14.5 | 0.00 | 0.00 | 0.00 | 47 | 1009.7 |
| 20260508122905 | 21 | 214 | 4.8 | 14.5 | 0.00 | 0.00 | 0.00 | 49 | 1009.7 |
| 20260508122404 | 21 | 203 | 4.8 | 14.5 | 0.00 | 0.00 | 0.00 | 50 | 1009.8 |
| 20260508121904 | 21 | 215 | 8.0 | 14.5 | 0.00 | 0.00 | 0.00 | 50 | 1009.9 |
| 20260508121405 | 21 | 214 | 6.4 | 14.5 | 0.00 | 0.00 | 0.00 | 50 | 1009.9 |
| 20260508120904 | 21 | 208 | 6.4 | 16.1 | 0.00 | 0.00 | 0.00 | 51 | 1010.0 |
| 20260508120405 | 21 | 212 | 4.8 | 16.1 | 0.00 | 0.00 | 0.00 | 51 | 1010.0 |
| 20260508115904 | 21 | 199 | 4.8 | 14.5 | 0.00 | 0.00 | 0.00 | 50 | 1010.0 |
| 20260508115405 | 20 | 208 | 4.8 | 14.5 | 0.00 | 0.00 | 0.00 | 51 | 1010.2 |
| 20260508114905 | 20 | 228 | 3.2 | 8.0 | 0.00 | 0.00 | 0.00 | 50 | 1010.1 |
| 20260508114405 | 21 | 229 | 3.2 | 12.9 | 0.00 | 0.00 | 0.00 | 49 | 1010.1 |
| 20260508113905 | 20 | 230 | 6.4 | 14.5 | 0.00 | 0.00 | 0.00 | 49 | 1010.1 |
| 20260508112905 | 20 | 225 | 8.0 | 17.7 | 0.00 | 0.00 | 0.00 | 51 | 1010.3 |
| 20260508112404 | 20 | 220 | 6.4 | 17.7 | 0.00 | 0.00 | 0.00 | 51 | 1010.4 |
| 20260508111905 | 20 | 225 | 4.8 | 12.9 | 0.00 | 0.00 | 0.00 | 51 | 1010.4 |
| 20260508111404 | 20 | 220 | 4.8 | 12.9 | 0.00 | 0.00 | 0.00 | 50 | 1010.3 |
| 20260508110904 | 20 | 219 | 8.0 | 19.3 | 0.00 | 0.00 | 0.00 | 51 | 1010.4 |
| 20260508110405 | 20 | 231 | 9.7 | 19.3 | 0.00 | 0.00 | 0.00 | 52 | 1010.5 |
| 20260508105904 | 20 | 238 | 8.0 | 16.1 | 0.00 | 0.00 | 0.00 | 50 | 1010.5 |
| 20260508104906 | 20 | 224 | 3.2 | 14.5 | 0.00 | 0.00 | 0.00 | 52 | 1010.4 |
| 20260508104405 | 20 | 215 | 6.4 | 14.5 | 0.00 | 0.00 | 0.00 | 53 | 1010.4 |
| 20260508103904 | 20 | 206 | 4.8 | 14.5 | 0.00 | 0.00 | 0.00 | 53 | 1010.5 |
| 20260508102905 | 20 | 225 | 6.4 | 14.5 | 0.00 | 0.00 | 0.00 | 53 | 1010.5 |
| 20260508102404 | 19 | 204 | 6.4 | 14.5 | 0.00 | 0.00 | 0.00 | 53 | 1010.5 |
| 20260508101404 | 20 | 217 | 4.8 | 16.1 | 0.00 | 0.00 | 0.00 | 54 | 1010.7 |
| 20260508100904 | 19 | 223 | 6.4 | 14.5 | 0.00 | 0.00 | 0.00 | 54 | 1010.8 |
| 20260508100404 | 19 | 224 | 8.0 | 16.1 | 0.00 | 0.00 | 0.00 | 55 | 1010.9 |
| 20260508095904 | 19 | 225 | 8.0 | 16.1 | 0.00 | 0.00 | 0.00 | 55 | 1010.9 |
| 20260508094904 | 19 | 218 | 4.8 | 16.1 | 0.00 | 0.00 | 0.00 | 57 | 1010.9 |
| 20260508094404 | 18 | 211 | 4.8 | 14.5 | 0.00 | 0.00 | 0.00 | 60 | 1011.0 |
| 20260508093904 | 18 | 213 | 8.0 | 16.1 | 0.00 | 0.00 | 0.00 | 61 | 1011.0 |
| 20260508092905 | 18 | 197 | 8.0 | 20.9 | 0.00 | 0.00 | 0.00 | 61 | 1011.1 |
| 20260508092405 | 18 | 196 | 8.0 | 17.7 | 0.00 | 0.00 | 0.00 | 64 | 1011.2 |
| 20260508091404 | 18 | 220 | 8.0 | 19.3 | 0.00 | 0.00 | 0.00 | 64 | 1011.2 |
| 20260508090904 | 18 | 235 | 8.0 | 19.3 | 0.00 | 0.00 | 0.00 | 64 | 1011.1 |
| 20260508090404 | 18 | 236 | 8.0 | 16.1 | 0.00 | 0.00 | 0.00 | 64 | 1011.1 |
| 20260508085904 | 18 | 224 | 8.0 | 17.7 | 0.00 | 0.00 | 0.00 | 65 | 1011.0 |
| 20260508085404 | 18 | 198 | 6.4 | 17.7 | 0.00 | 0.00 | 0.00 | 65 | 1011.1 |
| 20260508084404 | 18 | 211 | 8.0 | 17.7 | 0.00 | 0.00 | 0.00 | 66 | 1011.0 |
| 20260508083905 | 17 | 215 | 9.7 | 19.3 | 0.00 | 0.00 | 0.00 | 65 | 1011.1 |
| 20260508083404 | 17 | 230 | 8.0 | 19.3 | 0.00 | 0.00 | 0.00 | 66 | 1011.0 |
| 20260508082904 | 17 | 223 | 4.8 | 12.9 | 0.00 | 0.00 | 0.00 | 67 | 1011.0 |
| 20260508082404 | 17 | 206 | 6.4 | 16.1 | 0.00 | 0.00 | 0.00 | 69 | 1011.1 |
| 20260508081904 | 17 | 207 | 4.8 | 16.1 | 0.00 | 0.00 | 0.00 | 69 | 1011.2 |
| 20260508081404 | 17 | 199 | 4.8 | 12.9 | 0.00 | 0.00 | 0.00 | 70 | 1011.1 |
| 20260508080904 | 17 | 193 | 6.4 | 12.9 | 0.00 | 0.00 | 0.00 | 71 | 1010.9 |
| 20260508080405 | 16 | 195 | 4.8 | 12.9 | 0.00 | 0.00 | 0.00 | 71 | 1011.0 |
| 20260508075404 | 16 | 184 | 4.8 | 11.3 | 0.00 | 0.00 | 0.00 | 73 | 1010.9 |
| 20260508074905 | 16 | 175 | 6.4 | 12.9 | 0.00 | 0.00 | 0.00 | 74 | 1010.8 |
| 20260508074404 | 16 | 168 | 4.8 | 12.9 | 0.00 | 0.00 | 0.00 | 74 | 1010.7 |
| 20260508073904 | 16 | 159 | 3.2 | 11.3 | 0.00 | 0.00 | 0.00 | 75 | 1010.6 |
| 20260508073404 | 16 | 155 | 6.4 | 14.5 | 0.00 | 0.00 | 0.00 | 76 | 1010.6 |
| 20260508072904 | 15 | 155 | 6.4 | 14.5 | 0.00 | 0.00 | 0.00 | 77 | 1010.6 |
| 20260508072404 | 15 | 158 | 8.0 | 14.5 | 0.00 | 0.00 | 0.00 | 78 | 1010.5 |
| 20260508071904 | 15 | 160 | 6.4 | 14.5 | 0.00 | 0.00 | 0.00 | 79 | 1010.5 |
| 20260508071404 | 15 | 163 | 3.2 | 12.9 | 0.00 | 0.00 | 0.00 | 80 | 1010.6 |
| 20260508065904 | 13 | 159 | 4.8 | 11.3 | 0.00 | 0.00 | 0.00 | 82 | 1010.6 |
| 20260508065403 | 13 | 155 | 3.2 | 9.7 | 0.00 | 0.00 | 0.00 | 82 | 1010.6 |
| 20260508064404 | 13 | 160 | 4.8 | 11.3 | 0.00 | 0.00 | 0.00 | 82 | 1010.5 |
| 20260508063903 | 13 | 160 | 4.8 | 11.3 | 0.00 | 0.00 | 0.00 | 82 | 1010.4 |
| 20260508062904 | 13 | 157 | 3.2 | 11.3 | 0.00 | 0.00 | 0.00 | 82 | 1010.4 |
| 20260508062403 | 13 | 159 | 4.8 | 11.3 | 0.00 | 0.00 | 0.00 | 82 | 1010.4 |
| 20260508061904 | 13 | 157 | 6.4 | 12.9 | 0.00 | 0.00 | 0.00 | 82 | 1010.4 |
| 20260508061404 | 13 | 157 | 6.4 | 12.9 | 0.00 | 0.00 | 0.00 | 82 | 1010.3 |
| 20260508060903 | 13 | 159 | 4.8 | 9.7 | 0.00 | 0.00 | 0.00 | 82 | 1010.3 |
| 20260508055904 | 13 | 159 | 4.8 | 9.7 | 0.00 | 0.00 | 0.00 | 82 | 1010.2 |
| 20260508055404 | 13 | 162 | 3.2 | 9.7 | 0.00 | 0.00 | 0.00 | 82 | 1010.3 |
| 20260508054904 | 13 | 169 | 3.2 | 9.7 | 0.00 | 0.00 | 0.00 | 82 | 1010.2 |
| 20260508054404 | 13 | 176 | 1.6 | 8.0 | 0.00 | 0.00 | 0.00 | 82 | 1010.1 |
| 20260508053904 | 13 | 165 | 3.2 | 9.7 | 0.00 | 0.00 | 0.00 | 82 | 1010.2 |
| 20260508053405 | 13 | 164 | 3.2 | 9.7 | 0.00 | 0.00 | 0.00 | 82 | 1009.9 |
| 20260508052904 | 13 | 163 | 3.2 | 12.9 | 0.00 | 0.00 | 0.00 | 82 | 1009.8 |
| 20260508052405 | 13 | 166 | 4.8 | 12.9 | 0.00 | 0.00 | 0.00 | 81 | 1009.7 |
| 20260508051903 | 13 | 164 | 4.8 | 9.7 | 0.00 | 0.00 | 0.00 | 81 | 1009.7 |
| 20260508051404 | 13 | 157 | 3.2 | 9.7 | 0.00 | 0.00 | 0.00 | 81 | 1009.7 |
| 20260508050904 | 13 | 147 | 3.2 | 9.7 | 0.00 | 0.00 | 0.00 | 81 | 1009.6 |
| 20260508045904 | 13 | 161 | 3.2 | 9.7 | 0.00 | 0.00 | 0.00 | 81 | 1009.3 |
| 20260508045403 | 13 | 165 | 3.2 | 9.7 | 0.00 | 0.00 | 0.00 | 81 | 1009.5 |
| 20260508044904 | 13 | 167 | 4.8 | 11.3 | 0.00 | 0.00 | 0.00 | 81 | 1009.5 |
| 20260508044404 | 13 | 169 | 4.8 | 12.9 | 0.00 | 0.00 | 0.00 | 81 | 1009.3 |
| 20260508043404 | 13 | 147 | 3.2 | 11.3 | 0.00 | 0.00 | 0.00 | 81 | 1009.2 |
| 20260508042904 | 13 | 143 | 3.2 | 8.0 | 0.00 | 0.00 | 0.00 | 81 | 1009.1 |
| 20260508042403 | 13 | 152 | 4.8 | 12.9 | 0.00 | 0.00 | 0.00 | 81 | 1009.0 |
| 20260508041405 | 13 | 145 | 3.2 | 9.7 | 0.00 | 0.00 | 0.00 | 80 | 1009.3 |
| 20260508040904 | 13 | 145 | 4.8 | 11.3 | 0.00 | 0.00 | 0.00 | 81 | 1009.2 |
| 20260508040404 | 13 | 153 | 4.8 | 11.3 | 0.00 | 0.00 | 0.00 | 80 | 1009.1 |
| 20260508035904 | 13 | 151 | 3.2 | 14.5 | 0.00 | 0.00 | 0.00 | 80 | 1009.4 |
| 20260508035404 | 13 | 141 | 6.4 | 14.5 | 0.00 | 0.00 | 0.00 | 80 | 1009.4 |
| 20260508034904 | 13 | 139 | 6.4 | 14.5 | 0.00 | 0.00 | 0.00 | 79 | 1009.3 |
| 20260508034403 | 14 | 141 | 4.8 | 12.9 | 0.00 | 0.00 | 0.00 | 79 | 1009.2 |
| 20260508033904 | 14 | 147 | 3.2 | 9.7 | 0.00 | 0.00 | 0.00 | 79 | 1009.3 |
| 20260508033404 | 14 | 152 | 3.2 | 8.0 | 0.00 | 0.00 | 0.00 | 78 | 1009.3 |
| 20260508032903 | 14 | 156 | 3.2 | 8.0 | 0.00 | 0.00 | 0.00 | 78 | 1009.3 |
| 20260508032405 | 14 | 157 | 3.2 | 8.0 | 0.00 | 0.00 | 0.00 | 78 | 1009.4 |
| 20260508031404 | 14 | 158 | 3.2 | 9.7 | 0.00 | 0.00 | 0.00 | 78 | 1009.6 |
| 20260508030905 | 14 | 170 | 4.8 | 9.7 | 0.00 | 0.00 | 0.00 | 78 | 1009.6 |
| 20260508030403 | 14 | 173 | 4.8 | 8.0 | 0.00 | 0.00 | 0.00 | 78 | 1009.6 |
| 20260508025403 | 14 | 160 | 3.2 | 9.7 | 0.00 | 0.00 | 0.00 | 78 | 1009.7 |
| 20260508024903 | 14 | 160 | 4.8 | 9.7 | 0.00 | 0.00 | 0.00 | 78 | 1009.8 |
| 20260508023405 | 14 | 156 | 4.8 | 9.7 | 0.00 | 0.00 | 0.00 | 78 | 1009.7 |
| 20260508022903 | 14 | 146 | 4.8 | 12.9 | 0.00 | 0.00 | 0.00 | 78 | 1009.7 |
| 20260508022405 | 14 | 148 | 4.8 | 12.9 | 0.00 | 0.00 | 0.00 | 77 | 1009.8 |
| 20260508021903 | 15 | 157 | 3.2 | 9.7 | 0.00 | 0.00 | 0.00 | 77 | 1009.7 |
| 20260508020904 | 15 | 165 | 3.2 | 8.0 | 0.00 | 0.00 | 0.00 | 77 | 1009.7 |
| 20260508020403 | 15 | 158 | 3.2 | 4.8 | 0.00 | 0.00 | 0.00 | 77 | 1009.8 |
| 20260508015909 | 15 | 161 | 1.6 | 9.7 | 0.00 | 0.00 | 0.00 | 76 | 1009.8 |
| 20260508015410 | 15 | 165 | 1.6 | 8.0 | 0.00 | 0.00 | 0.00 | 76 | 1009.8 |
| 20260508014909 | 15 | 166 | 3.2 | 8.0 | 0.00 | 0.00 | 0.00 | 76 | 1009.8 |
| 20260508014411 | 15 | 162 | 3.2 | 8.0 | 0.00 | 0.00 | 0.00 | 76 | 1009.9 |
| 20260508013909 | 15 | 154 | 3.2 | 8.0 | 0.00 | 0.00 | 0.00 | 76 | 1010.0 |
| 20260508013410 | 15 | 151 | 3.2 | 11.3 | 0.00 | 0.00 | 0.00 | 76 | 1010.0 |
| 20260508012910 | 15 | 162 | 4.8 | 11.3 | 0.00 | 0.00 | 0.00 | 76 | 1009.9 |
| 20260508011410 | 15 | 159 | 4.8 | 12.9 | 0.00 | 0.00 | 0.00 | 75 | 1010.1 |
| 20260508010909 | 15 | 157 | 3.2 | 12.9 | 0.00 | 0.00 | 0.00 | 75 | 1010.0 |
| 20260508010410 | 15 | 160 | 3.2 | 9.7 | 0.00 | 0.00 | 0.00 | 75 | 1010.1 |
| 20260508005409 | 15 | 182 | 1.6 | 8.0 | 0.00 | 0.00 | 0.00 | 75 | 1010.2 |
| 20260508004910 | 15 | 174 | 1.6 | 12.9 | 0.00 | 0.00 | 0.00 | 75 | 1010.2 |
| 20260508004409 | 15 | 169 | 4.8 | 12.9 | 0.00 | 0.00 | 0.00 | 75 | 1010.2 |
| 20260508003910 | 15 | 174 | 3.2 | 9.7 | 0.00 | 0.00 | 0.00 | 75 | 1010.3 |
| 20260508003409 | 15 | 173 | 1.6 | 9.7 | 0.00 | 0.00 | 0.00 | 75 | 1010.2 |
| 20260508002911 | 15 | 157 | 3.2 | 9.7 | 0.00 | 0.00 | 0.00 | 75 | 1010.2 |
| 20260508002409 | 15 | 163 | 3.2 | 9.7 | 0.00 | 0.00 | 0.00 | 75 | 1010.1 |
| 20260508001909 | 15 | 181 | 3.2 | 9.7 | 0.00 | 0.00 | 0.00 | 75 | 1010.1 |
| 20260508000909 | 15 | 173 | 4.8 | 9.7 | 0.00 | 0.00 | 0.00 | 75 | 1010.1 |
| 20260508000412 | 15 | 175 | 4.8 | 11.3 | 0.00 | 0.00 | 0.00 | 75 | 1010.2 |
| 20260507235910 | 15 | 181 | 3.2 | 11.3 | 0.00 | 0.00 | 0.00 | 75 | 1010.4 |
| 20260507234910 | 15 | 165 | 6.4 | 9.7 | 0.00 | 0.00 | 0.00 | 75 | 1010.4 |
| 20260507233910 | 16 | 174 | 3.2 | 9.7 | 0.00 | 0.00 | 0.00 | 74 | 1010.3 |
| 20260507233409 | 16 | 169 | 3.2 | 8.0 | 0.00 | 0.00 | 0.00 | 74 | 1010.3 |
| 20260507232909 | 16 | 167 | 3.2 | 9.7 | 0.00 | 0.00 | 0.00 | 74 | 1010.1 |
| 20260507232410 | 16 | 175 | 3.2 | 9.7 | 0.00 | 0.00 | 0.00 | 73 | 1010.2 |
| 20260507231909 | 16 | 176 | 3.2 | 9.7 | 0.00 | 0.00 | 0.00 | 73 | 1010.3 |
| 20260507231410 | 16 | 170 | 3.2 | 9.7 | 0.00 | 0.00 | 0.00 | 72 | 1010.3 |
| 20260507230910 | 16 | 166 | 1.6 | 8.0 | 0.00 | 0.00 | 0.00 | 72 | 1010.4 |
| 20260507230409 | 16 | 162 | 3.2 | 8.0 | 0.00 | 0.00 | 0.00 | 72 | 1010.5 |
| 20260507225409 | 16 | 179 | 3.2 | 11.3 | 0.00 | 0.00 | 0.00 | 71 | 1010.6 |
| 20260507224909 | 16 | 194 | 3.2 | 9.7 | 0.00 | 0.00 | 0.00 | 71 | 1010.6 |
| 20260507224410 | 16 | 219 | 3.2 | 9.7 | 0.00 | 0.00 | 0.00 | 71 | 1010.6 |
| 20260507223911 | 16 | 218 | 4.8 | 9.7 | 0.00 | 0.00 | 0.00 | 71 | 1010.8 |
| 20260507223409 | 16 | 217 | 4.8 | 9.7 | 0.00 | 0.00 | 0.00 | 71 | 1010.9 |
| 20260507222910 | 16 | 222 | 3.2 | 8.0 | 0.00 | 0.00 | 0.00 | 71 | 1010.7 |
| 20260507221909 | 16 | 205 | 3.2 | 8.0 | 0.00 | 0.00 | 0.00 | 70 | 1010.8 |
| 20260507221410 | 16 | 216 | 3.2 | 11.3 | 0.00 | 0.00 | 0.00 | 70 | 1010.8 |
| 20260507220909 | 16 | 221 | 3.2 | 11.3 | 0.00 | 0.00 | 0.00 | 70 | 1010.8 |
| 20260507220409 | 16 | 219 | 3.2 | 9.7 | 0.00 | 0.00 | 0.00 | 70 | 1010.9 |
| 20260507215910 | 16 | 226 | 4.8 | 12.9 | 0.00 | 0.00 | 0.00 | 70 | 1010.8 |
| 20260507214409 | 16 | 217 | 4.8 | 11.3 | 0.00 | 0.00 | 0.00 | 70 | 1010.9 |
| 20260507213909 | 16 | 228 | 4.8 | 9.7 | 0.00 | 0.00 | 0.00 | 70 | 1010.8 |
| 20260507213410 | 16 | 230 | 4.8 | 14.5 | 0.00 | 0.00 | 0.00 | 69 | 1010.8 |
| 20260507212909 | 16 | 230 | 6.4 | 14.5 | 0.00 | 0.00 | 0.00 | 69 | 1010.9 |
| 20260507212410 | 16 | 226 | 6.4 | 11.3 | 0.00 | 0.00 | 0.00 | 69 | 1010.9 |
| 20260507211910 | 17 | 217 | 4.8 | 11.3 | 0.00 | 0.00 | 0.00 | 68 | 1010.7 |
| 20260507211410 | 17 | 220 | 4.8 | 11.3 | 0.00 | 0.00 | 0.00 | 68 | 1010.8 |
| 20260507210909 | 17 | 225 | 6.4 | 11.3 | 0.00 | 0.00 | 0.00 | 67 | 1010.7 |
| 20260507210409 | 17 | 220 | 4.8 | 11.3 | 0.00 | 0.00 | 0.00 | 67 | 1010.7 |
| 20260507205912 | 17 | 223 | 4.8 | 12.9 | 0.00 | 0.00 | 0.00 | 66 | 1010.6 |
| 20260507205410 | 17 | 230 | 6.4 | 14.5 | 0.00 | 0.00 | 0.00 | 65 | 1010.5 |
| 20260507204910 | 17 | 230 | 6.4 | 14.5 | 0.00 | 0.00 | 0.00 | 64 | 1010.4 |
| 20260507204409 | 17 | 228 | 6.4 | 14.5 | 0.00 | 0.00 | 0.00 | 64 | 1010.4 |
| 20260507203909 | 17 | 230 | 8.0 | 14.5 | 0.00 | 0.00 | 0.00 | 63 | 1010.5 |
| 20260507203409 | 17 | 233 | 6.4 | 12.9 | 0.00 | 0.00 | 0.00 | 63 | 1010.4 |
| 20260507202910 | 17 | 237 | 6.4 | 12.9 | 0.00 | 0.00 | 0.00 | 62 | 1010.2 |
| 20260507202410 | 17 | 241 | 4.8 | 14.5 | 0.00 | 0.00 | 0.00 | 62 | 1010.2 |
| 20260507201909 | 17 | 263 | 4.8 | 14.5 | 0.00 | 0.00 | 0.00 | 63 | 1010.1 |
| 20260507201409 | 17 | 269 | 4.8 | 14.5 | 0.00 | 0.00 | 0.00 | 64 | 1010.1 |
| 20260507200409 | 17 | 271 | 6.4 | 12.9 | 0.00 | 0.00 | 0.00 | 64 | 1010.1 |
| 20260507195909 | 17 | 279 | 4.8 | 12.9 | 0.00 | 0.00 | 0.00 | 64 | 1010.1 |
| 20260507195409 | 18 | 251 | 4.8 | 14.5 | 0.00 | 0.00 | 0.00 | 64 | 1010.0 |
| 20260507194409 | 18 | 240 | 8.0 | 16.1 | 0.00 | 0.00 | 0.00 | 64 | 1009.9 |
| 20260507193909 | 18 | 237 | 9.7 | 17.7 | 0.00 | 0.00 | 0.00 | 63 | 1009.9 |
| 20260507193409 | 18 | 237 | 9.7 | 17.7 | 0.00 | 0.00 | 0.00 | 63 | 1009.8 |
| 20260507192909 | 18 | 241 | 8.0 | 17.7 | 0.00 | 0.00 | 0.00 | 62 | 1009.7 |
| 20260507192409 | 18 | 243 | 8.0 | 22.5 | 0.00 | 0.00 | 0.00 | 62 | 1009.8 |
| 20260507191411 | 18 | 235 | 12.9 | 24.1 | 0.00 | 0.00 | 0.00 | 62 | 1009.7 |
| 20260507190910 | 18 | 237 | 12.9 | 20.9 | 0.00 | 0.00 | 0.00 | 62 | 1009.6 |
| 20260507190409 | 18 | 235 | 11.3 | 24.1 | 0.00 | 0.00 | 0.00 | 61 | 1009.6 |
| 20260507185910 | 18 | 231 | 11.3 | 24.1 | 0.00 | 0.00 | 0.00 | 60 | 1009.5 |
| 20260507184909 | 19 | 237 | 14.5 | 27.4 | 0.00 | 0.00 | 0.00 | 58 | 1009.4 |
| 20260507184410 | 19 | 238 | 16.1 | 27.4 | 0.00 | 0.00 | 0.00 | 56 | 1009.3 |
| 20260507183910 | 19 | 235 | 14.5 | 27.4 | 0.00 | 0.00 | 0.00 | 56 | 1009.2 |
| 20260507183409 | 20 | 231 | 12.9 | 30.6 | 0.00 | 0.00 | 0.00 | 56 | 1009.0 |
| 20260507182910 | 20 | 234 | 14.5 | 30.6 | 0.00 | 0.00 | 0.00 | 56 | 1009.1 |
| 20260507182410 | 20 | 241 | 11.3 | 27.4 | 0.00 | 0.00 | 0.00 | 55 | 1009.0 |
| 20260507181409 | 20 | 237 | 12.9 | 27.4 | 0.00 | 0.00 | 0.00 | 54 | 1008.9 |
| 20260507180908 | 20 | 235 | 14.5 | 27.4 | 0.00 | 0.00 | 0.00 | 54 | 1008.8 |
| 20260507180409 | 20 | 236 | 12.9 | 24.1 | 0.00 | 0.00 | 0.00 | 53 | 1008.8 |
| 20260507175910 | 20 | 239 | 11.3 | 24.1 | 0.00 | 0.00 | 0.00 | 53 | 1008.8 |
| 20260507175409 | 21 | 245 | 12.9 | 30.6 | 0.00 | 0.00 | 0.00 | 53 | 1008.6 |
| 20260507174910 | 21 | 239 | 14.5 | 30.6 | 0.00 | 0.00 | 0.00 | 52 | 1008.6 |
| 20260507173909 | 21 | 238 | 12.9 | 27.4 | 0.00 | 0.00 | 0.00 | 51 | 1008.6 |
| 20260507173408 | 21 | 237 | 14.5 | 27.4 | 0.00 | 0.00 | 0.00 | 50 | 1008.7 |
| 20260507172910 | 21 | 234 | 12.9 | 25.7 | 0.00 | 0.00 | 0.00 | 50 | 1008.6 |
| 20260507171410 | 21 | 236 | 16.1 | 30.6 | 0.00 | 0.00 | 0.00 | 48 | 1008.3 |
| 20260507170908 | 21 | 242 | 12.9 | 30.6 | 0.00 | 0.00 | 0.00 | 47 | 1008.4 |
| 20260507170410 | 22 | 244 | 8.0 | 24.1 | 0.00 | 0.00 | 0.00 | 47 | 1008.3 |
| 20260507165909 | 22 | 241 | 9.7 | 24.1 | 0.00 | 0.00 | 0.00 | 46 | 1008.3 |
| 20260507165409 | 22 | 223 | 11.3 | 27.4 | 0.00 | 0.00 | 0.00 | 46 | 1008.2 |
| 20260507164909 | 22 | 218 | 12.9 | 27.4 | 0.00 | 0.00 | 0.00 | 46 | 1008.2 |
| 20260507164408 | 22 | 231 | 12.9 | 29.0 | 0.00 | 0.00 | 0.00 | 46 | 1008.2 |
| 20260507163910 | 22 | 231 | 11.3 | 29.0 | 0.00 | 0.00 | 0.00 | 45 | 1008.2 |
| 20260507162908 | 22 | 236 | 12.9 | 29.0 | 0.00 | 0.00 | 0.00 | 45 | 1008.2 |
| 20260507162409 | 22 | 234 | 12.9 | 29.0 | 0.00 | 0.00 | 0.00 | 46 | 1008.1 |
| 20260507161910 | 22 | 226 | 12.9 | 22.5 | 0.00 | 0.00 | 0.00 | 46 | 1008.1 |
| 20260507161408 | 22 | 225 | 12.9 | 25.7 | 0.00 | 0.00 | 0.00 | 45 | 1008.1 |
| 20260507160410 | 22 | 233 | 12.9 | 29.0 | 0.00 | 0.00 | 0.00 | 45 | 1008.1 |
| 20260507155909 | 22 | 232 | 12.9 | 29.0 | 0.00 | 0.00 | 0.00 | 45 | 1008.0 |
| 20260507155410 | 22 | 230 | 14.5 | 29.0 | 0.00 | 0.00 | 0.00 | 45 | 1008.0 |
| 20260507153909 | 23 | 239 | 11.3 | 20.9 | 0.00 | 0.00 | 0.00 | 43 | 1008.0 |
| 20260507153408 | 23 | 235 | 11.3 | 25.7 | 0.00 | 0.00 | 0.00 | 43 | 1008.0 |
| 20260507152909 | 23 | 236 | 11.3 | 25.7 | 0.00 | 0.00 | 0.00 | 43 | 1008.0 |
| 20260507152409 | 23 | 238 | 11.3 | 24.1 | 0.00 | 0.00 | 0.00 | 43 | 1008.1 |
| 20260507151909 | 23 | 241 | 9.7 | 20.9 | 0.00 | 0.00 | 0.00 | 43 | 1008.0 |
| 20260507151408 | 23 | 235 | 12.9 | 27.4 | 0.00 | 0.00 | 0.00 | 44 | 1008.1 |
| 20260507150909 | 22 | 229 | 12.9 | 27.4 | 0.00 | 0.00 | 0.00 | 45 | 1008.2 |
| 20260507150408 | 23 | 228 | 11.3 | 25.7 | 0.00 | 0.00 | 0.00 | 45 | 1008.2 |
| 20260507145909 | 22 | 228 | 16.1 | 33.8 | 0.00 | 0.00 | 0.00 | 46 | 1008.1 |
| 20260507144908 | 22 | 231 | 12.9 | 27.4 | 0.00 | 0.00 | 0.00 | 46 | 1008.3 |
| 20260507144409 | 23 | 236 | 12.9 | 25.7 | 0.00 | 0.00 | 0.00 | 45 | 1008.4 |
| 20260507143909 | 22 | 230 | 11.3 | 25.7 | 0.00 | 0.00 | 0.00 | 45 | 1008.3 |
| 20260507143409 | 22 | 228 | 11.3 | 25.7 | 0.00 | 0.00 | 0.00 | 47 | 1008.4 |
| 20260507142910 | 22 | 240 | 11.3 | 24.1 | 0.00 | 0.00 | 0.00 | 46 | 1008.4 |
| 20260507142408 | 22 | 235 | 14.5 | 33.8 | 0.00 | 0.00 | 0.00 | 47 | 1008.4 |
| 20260507141909 | 22 | 233 | 14.5 | 33.8 | 0.00 | 0.00 | 0.00 | 48 | 1008.3 |
| 20260507141408 | 22 | 243 | 9.7 | 20.9 | 0.00 | 0.00 | 0.00 | 47 | 1008.5 |
| 20260507140909 | 22 | 243 | 12.9 | 24.1 | 0.00 | 0.00 | 0.00 | 49 | 1008.4 |
| 20260507140408 | 22 | 231 | 16.1 | 27.4 | 0.00 | 0.00 | 0.00 | 49 | 1008.5 |
| 20260507135908 | 22 | 225 | 16.1 | 27.4 | 0.00 | 0.00 | 0.00 | 49 | 1008.6 |
| 20260507134909 | 22 | 237 | 12.9 | 32.2 | 0.00 | 0.00 | 0.00 | 51 | 1008.7 |
| 20260507134408 | 22 | 230 | 14.5 | 27.4 | 0.00 | 0.00 | 0.00 | 50 | 1008.7 |
| 20260507133909 | 22 | 222 | 12.9 | 27.4 | 0.00 | 0.00 | 0.00 | 50 | 1008.7 |
| 20260507133408 | 22 | 229 | 14.5 | 27.4 | 0.00 | 0.00 | 0.00 | 49 | 1008.8 |